TTPP/POS METAR and TAF weather

Enter ICAO airport designator
Station Type Date Time Source
TTPP METAR 2019/10/15 04:00 UTC NOAA

TTPP 150400Z 00000KT 9999 FEW016 25/23 Q1013 NOSIG


Station Type Date Time Source
TTPP Decoded METAR 2019/10/15 04:00 UTC NOAA

Piarco International Airport, Trinidad, Trinidad and Tobago (TTPP) 10-37N 061-21W 15M
Oct 15, 2019 - 12:00 AM EDT / 2019.10.15 0400 UTC
Wind: Calm:0
Visibility: greater than 7 mile(s):0
Sky conditions: mostly clear
Temperature: 77 F (25 C)
Dew Point: 73 F (23 C)
Relative Humidity: 88%
Pressure (altimeter): 29.91 in. Hg (1013 hPa)
ob: TTPP 150400Z 00000KT 9999 FEW016 25/23 Q1013 NOSIG
cycle: 4

Station Type Date Time Source
TTPP TAF 2019/10/14 18:31 UTC NOAA

TAF TTPP 141600Z 1418/1518 14005KT 9999 SCT018
TEMPO 1418/1421 7000 SHRA FEW012CB SCT015

Example: see airport list